sensor_id;sensor_type;location;lat;lon;timestamp;pressure;altitude;pressure_sealevel;temperature;humidity
4981;BME280;2507;50.392;7.482;2023-02-18T00:01:23;101572.50;;;13.53;67.52
4981;BME280;2507;50.392;7.482;2023-02-18T00:03:49;101583.81;;;13.55;67.62
4981;BME280;2507;50.392;7.482;2023-02-18T00:06:20;101588.84;;;13.58;67.66
4981;BME280;2507;50.392;7.482;2023-02-18T00:08:46;101589.19;;;13.54;68.46
4981;BME280;2507;50.392;7.482;2023-02-18T00:11:13;101593.72;;;13.52;68.85
4981;BME280;2507;50.392;7.482;2023-02-18T00:13:38;101580.63;;;13.38;70.27
4981;BME280;2507;50.392;7.482;2023-02-18T00:16:06;101590.72;;;13.44;71.01
4981;BME280;2507;50.392;7.482;2023-02-18T00:18:32;101602.47;;;13.52;70.70
4981;BME280;2507;50.392;7.482;2023-02-18T00:20:58;101595.09;;;13.57;70.77
4981;BME280;2507;50.392;7.482;2023-02-18T00:23:24;101592.72;;;13.40;72.00
4981;BME280;2507;50.392;7.482;2023-02-18T00:26:00;101591.91;;;13.40;72.48
4981;BME280;2507;50.392;7.482;2023-02-18T00:28:26;101600.34;;;13.45;72.06
4981;BME280;2507;50.392;7.482;2023-02-18T00:30:52;101591.59;;;13.44;72.29
4981;BME280;2507;50.392;7.482;2023-02-18T00:33:17;101596.69;;;13.47;72.43
4981;BME280;2507;50.392;7.482;2023-02-18T00:35:42;101590.66;;;13.45;72.56
4981;BME280;2507;50.392;7.482;2023-02-18T00:38:07;101591.91;;;13.40;72.91
4981;BME280;2507;50.392;7.482;2023-02-18T00:40:36;101584.50;;;13.32;72.91
4981;BME280;2507;50.392;7.482;2023-02-18T00:43:02;101581.41;;;13.25;73.09
4981;BME280;2507;50.392;7.482;2023-02-18T00:45:27;101581.75;;;13.33;72.80
4981;BME280;2507;50.392;7.482;2023-02-18T00:47:52;101592.00;;;13.38;72.28
4981;BME280;2507;50.392;7.482;2023-02-18T00:50:17;101595.84;;;13.59;71.55
4981;BME280;2507;50.392;7.482;2023-02-18T00:52:43;101592.34;;;13.71;70.80
4981;BME280;2507;50.392;7.482;2023-02-18T00:55:08;101583.28;;;13.63;71.46
4981;BME280;2507;50.392;7.482;2023-02-18T00:57:33;101578.88;;;13.76;70.41
4981;BME280;2507;50.392;7.482;2023-02-18T00:59:58;101576.34;;;13.74;70.72
4981;BME280;2507;50.392;7.482;2023-02-18T01:02:24;101576.88;;;13.92;69.74
4981;BME280;2507;50.392;7.482;2023-02-18T01:04:49;101588.28;;;14.05;69.23
4981;BME280;2507;50.392;7.482;2023-02-18T01:07:14;101587.19;;;13.95;69.05
4981;BME280;2507;50.392;7.482;2023-02-18T01:09:39;101591.44;;;13.97;69.61
4981;BME280;2507;50.392;7.482;2023-02-18T01:12:05;101578.13;;;13.99;69.52
4981;BME280;2507;50.392;7.482;2023-02-18T01:14:30;101559.03;;;13.95;69.38
4981;BME280;2507;50.392;7.482;2023-02-18T01:16:55;101565.28;;;13.94;69.53
4981;BME280;2507;50.392;7.482;2023-02-18T01:19:21;101563.34;;;13.96;69.36
4981;BME280;2507;50.392;7.482;2023-02-18T01:21:46;101560.50;;;13.99;69.68
4981;BME280;2507;50.392;7.482;2023-02-18T01:24:11;101562.41;;;13.97;69.08
4981;BME280;2507;50.392;7.482;2023-02-18T01:26:37;101565.34;;;13.93;69.42
4981;BME280;2507;50.392;7.482;2023-02-18T01:29:02;101553.34;;;14.01;69.22
4981;BME280;2507;50.392;7.482;2023-02-18T01:31:28;101550.34;;;14.06;69.22
4981;BME280;2507;50.392;7.482;2023-02-18T01:33:53;101554.88;;;14.04;69.39
4981;BME280;2507;50.392;7.482;2023-02-18T01:36:18;101547.41;;;14.10;68.97
4981;BME280;2507;50.392;7.482;2023-02-18T01:38:45;101545.50;;;14.12;69.31
4981;BME280;2507;50.392;7.482;2023-02-18T01:41:10;101553.97;;;14.05;70.47
4981;BME280;2507;50.392;7.482;2023-02-18T01:43:36;101547.53;;;14.09;69.73
4981;BME280;2507;50.392;7.482;2023-02-18T01:46:14;101544.75;;;14.23;69.55
4981;BME280;2507;50.392;7.482;2023-02-18T01:48:46;101542.41;;;14.31;69.17
4981;BME280;2507;50.392;7.482;2023-02-18T01:51:27;101534.50;;;14.18;69.34
4981;BME280;2507;50.392;7.482;2023-02-18T01:53:58;101517.22;;;14.14;69.85
4981;BME280;2507;50.392;7.482;2023-02-18T01:56:32;101527.44;;;14.19;69.46
4981;BME280;2507;50.392;7.482;2023-02-18T01:59:00;101518.66;;;14.18;69.81
4981;BME280;2507;50.392;7.482;2023-02-18T02:01:27;101517.59;;;14.21;69.46
4981;BME280;2507;50.392;7.482;2023-02-18T02:03:53;101514.63;;;14.25;69.57
4981;BME280;2507;50.392;7.482;2023-02-18T02:06:21;101515.94;;;14.32;69.30
4981;BME280;2507;50.392;7.482;2023-02-18T02:08:48;101507.28;;;14.30;69.42
4981;BME280;2507;50.392;7.482;2023-02-18T02:11:24;101501.66;;;14.22;70.17
4981;BME280;2507;50.392;7.482;2023-02-18T02:14:15;101496.72;;;14.18;69.97
4981;BME280;2507;50.392;7.482;2023-02-18T02:17:16;101502.09;;;14.04;71.02
4981;BME280;2507;50.392;7.482;2023-02-18T02:22:48;101504.13;;;13.88;72.06
4981;BME280;2507;50.392;7.482;2023-02-18T02:30:46;101492.34;;;13.81;73.02
4981;BME280;2507;50.392;7.482;2023-02-18T02:33:40;101493.81;;;13.85;72.61
4981;BME280;2507;50.392;7.482;2023-02-18T02:36:26;101483.97;;;13.99;71.75
4981;BME280;2507;50.392;7.482;2023-02-18T02:39:01;101480.25;;;14.02;71.84
4981;BME280;2507;50.392;7.482;2023-02-18T02:44:31;101483.16;;;13.74;71.86
4981;BME280;2507;50.392;7.482;2023-02-18T02:47:07;101487.69;;;13.72;70.71
4981;BME280;2507;50.392;7.482;2023-02-18T02:52:38;101469.91;;;13.99;69.16
4981;BME280;2507;50.392;7.482;2023-02-18T02:55:10;101473.63;;;14.09;68.31
4981;BME280;2507;50.392;7.482;2023-02-18T02:57:43;101472.41;;;14.13;67.68
4981;BME280;2507;50.392;7.482;2023-02-18T03:00:09;101474.63;;;14.19;67.57
4981;BME280;2507;50.392;7.482;2023-02-18T03:05:20;101453.75;;;14.16;67.24
4981;BME280;2507;50.392;7.482;2023-02-18T03:08:06;101455.06;;;14.34;66.69
4981;BME280;2507;50.392;7.482;2023-02-18T03:15:48;101450.84;;;14.31;66.42
4981;BME280;2507;50.392;7.482;2023-02-18T03:18:28;101439.13;;;14.23;66.87
4981;BME280;2507;50.392;7.482;2023-02-18T03:21:12;101435.25;;;14.28;66.53
4981;BME280;2507;50.392;7.482;2023-02-18T03:23:53;101441.28;;;14.18;67.03
4981;BME280;2507;50.392;7.482;2023-02-18T03:26:20;101440.31;;;14.19;67.11
4981;BME280;2507;50.392;7.482;2023-02-18T03:28:50;101435.25;;;14.16;67.48
4981;BME280;2507;50.392;7.482;2023-02-18T03:31:19;101429.75;;;14.19;67.25
4981;BME280;2507;50.392;7.482;2023-02-18T03:33:51;101434.78;;;14.22;67.34
4981;BME280;2507;50.392;7.482;2023-02-18T03:36:20;101426.31;;;14.06;67.92
4981;BME280;2507;50.392;7.482;2023-02-18T03:38:59;101425.09;;;14.22;67.38
4981;BME280;2507;50.392;7.482;2023-02-18T03:41:26;101433.44;;;14.16;67.90
4981;BME280;2507;50.392;7.482;2023-02-18T03:43:53;101424.91;;;14.13;67.91
4981;BME280;2507;50.392;7.482;2023-02-18T03:46:20;101440.81;;;14.24;67.62
4981;BME280;2507;50.392;7.482;2023-02-18T03:48:45;101430.38;;;14.22;67.61
4981;BME280;2507;50.392;7.482;2023-02-18T03:51:11;101419.06;;;14.33;67.39
4981;BME280;2507;50.392;7.482;2023-02-18T03:53:36;101416.88;;;14.27;67.50
4981;BME280;2507;50.392;7.482;2023-02-18T03:56:02;101415.19;;;14.13;68.19
4981;BME280;2507;50.392;7.482;2023-02-18T03:58:27;101409.69;;;14.29;67.59
4981;BME280;2507;50.392;7.482;2023-02-18T04:00:53;101403.72;;;14.25;68.06
4981;BME280;2507;50.392;7.482;2023-02-18T04:03:18;101405.47;;;14.26;68.23
4981;BME280;2507;50.392;7.482;2023-02-18T04:05:43;101403.72;;;14.25;67.85
4981;BME280;2507;50.392;7.482;2023-02-18T04:08:08;101402.91;;;14.25;68.20
4981;BME280;2507;50.392;7.482;2023-02-18T04:10:34;101413.88;;;14.31;67.70
4981;BME280;2507;50.392;7.482;2023-02-18T04:12:59;101418.56;;;14.15;68.76
4981;BME280;2507;50.392;7.482;2023-02-18T04:15:24;101411.13;;;14.33;67.76
4981;BME280;2507;50.392;7.482;2023-02-18T04:17:50;101399.84;;;14.31;67.63
4981;BME280;2507;50.392;7.482;2023-02-18T04:20:15;101398.31;;;14.16;68.31
4981;BME280;2507;50.392;7.482;2023-02-18T04:22:41;101401.44;;;14.21;67.85
4981;BME280;2507;50.392;7.482;2023-02-18T04:25:07;101395.38;;;14.08;68.34
4981;BME280;2507;50.392;7.482;2023-02-18T04:27:32;101395.19;;;13.98;68.80
4981;BME280;2507;50.392;7.482;2023-02-18T04:29:57;101395.66;;;13.92;69.03
4981;BME280;2507;50.392;7.482;2023-02-18T04:32:22;101395.34;;;13.84;69.20
4981;BME280;2507;50.392;7.482;2023-02-18T04:34:48;101385.63;;;13.85;68.73
4981;BME280;2507;50.392;7.482;2023-02-18T04:37:13;101388.69;;;13.79;69.53
4981;BME280;2507;50.392;7.482;2023-02-18T04:39:38;101383.16;;;13.71;69.85
4981;BME280;2507;50.392;7.482;2023-02-18T04:42:03;101396.50;;;13.80;69.44
4981;BME280;2507;50.392;7.482;2023-02-18T04:44:36;101397.88;;;13.73;70.03
4981;BME280;2507;50.392;7.482;2023-02-18T04:47:03;101381.47;;;13.57;70.40
4981;BME280;2507;50.392;7.482;2023-02-18T04:49:28;101387.88;;;13.66;70.06
4981;BME280;2507;50.392;7.482;2023-02-18T04:51:54;101373.25;;;13.62;70.45
4981;BME280;2507;50.392;7.482;2023-02-18T04:54:19;101368.38;;;13.68;70.21
4981;BME280;2507;50.392;7.482;2023-02-18T04:56:44;101364.69;;;13.58;70.65
4981;BME280;2507;50.392;7.482;2023-02-18T04:59:10;101361.44;;;13.42;71.03
4981;BME280;2507;50.392;7.482;2023-02-18T05:01:35;101360.72;;;13.40;71.42
4981;BME280;2507;50.392;7.482;2023-02-18T05:04:01;101365.59;;;13.33;71.71
4981;BME280;2507;50.392;7.482;2023-02-18T05:06:26;101369.81;;;13.36;71.77
4981;BME280;2507;50.392;7.482;2023-02-18T05:08:51;101362.34;;;13.17;72.32
4981;BME280;2507;50.392;7.482;2023-02-18T05:11:17;101381.81;;;13.15;72.40
4981;BME280;2507;50.392;7.482;2023-02-18T05:13:42;101370.75;;;13.22;72.29
4981;BME280;2507;50.392;7.482;2023-02-18T05:16:07;101362.84;;;13.10;73.11
4981;BME280;2507;50.392;7.482;2023-02-18T05:18:32;101358.56;;;13.09;72.90
4981;BME280;2507;50.392;7.482;2023-02-18T05:20:58;101355.16;;;12.94;73.19
4981;BME280;2507;50.392;7.482;2023-02-18T05:23:23;101351.25;;;13.00;73.22
4981;BME280;2507;50.392;7.482;2023-02-18T05:25:50;101350.59;;;12.96;73.10
4981;BME280;2507;50.392;7.482;2023-02-18T05:28:15;101348.06;;;12.95;73.85
4981;BME280;2507;50.392;7.482;2023-02-18T05:30:41;101339.84;;;12.87;74.26
4981;BME280;2507;50.392;7.482;2023-02-18T05:33:06;101331.50;;;12.80;74.38
4981;BME280;2507;50.392;7.482;2023-02-18T05:35:31;101338.59;;;12.80;74.16
4981;BME280;2507;50.392;7.482;2023-02-18T05:37:57;101326.88;;;12.71;74.82
4981;BME280;2507;50.392;7.482;2023-02-18T05:40:22;101320.56;;;12.61;75.83
4981;BME280;2507;50.392;7.482;2023-02-18T05:42:47;101315.19;;;12.50;76.63
4981;BME280;2507;50.392;7.482;2023-02-18T05:45:12;101308.81;;;12.40;77.36
4981;BME280;2507;50.392;7.482;2023-02-18T05:47:38;101306.75;;;12.45;76.94
4981;BME280;2507;50.392;7.482;2023-02-18T05:50:03;101306.94;;;12.42;77.44
4981;BME280;2507;50.392;7.482;2023-02-18T05:52:29;101324.31;;;12.45;77.17
4981;BME280;2507;50.392;7.482;2023-02-18T05:54:54;101319.78;;;12.34;77.73
4981;BME280;2507;50.392;7.482;2023-02-18T05:57:20;101323.47;;;12.44;77.37
4981;BME280;2507;50.392;7.482;2023-02-18T05:59:46;101317.97;;;12.34;77.66
4981;BME280;2507;50.392;7.482;2023-02-18T06:02:11;101326.41;;;12.27;77.99
4981;BME280;2507;50.392;7.482;2023-02-18T06:04:36;101315.03;;;12.26;77.93
4981;BME280;2507;50.392;7.482;2023-02-18T06:07:01;101319.25;;;12.29;77.85
4981;BME280;2507;50.392;7.482;2023-02-18T06:09:27;101316.41;;;12.32;77.43
4981;BME280;2507;50.392;7.482;2023-02-18T06:11:52;101305.56;;;12.37;76.72
4981;BME280;2507;50.392;7.482;2023-02-18T06:14:17;101299.53;;;12.22;77.75
4981;BME280;2507;50.392;7.482;2023-02-18T06:16:43;101305.00;;;12.19;77.77
4981;BME280;2507;50.392;7.482;2023-02-18T06:19:08;101312.78;;;12.20;77.60
4981;BME280;2507;50.392;7.482;2023-02-18T06:21:33;101317.88;;;12.23;77.41
4981;BME280;2507;50.392;7.482;2023-02-18T06:23:58;101338.66;;;12.14;78.11
4981;BME280;2507;50.392;7.482;2023-02-18T06:26:24;101334.19;;;12.28;77.11
4981;BME280;2507;50.392;7.482;2023-02-18T06:28:49;101327.56;;;12.36;76.95
4981;BME280;2507;50.392;7.482;2023-02-18T06:31:15;101319.34;;;12.40;76.34
4981;BME280;2507;50.392;7.482;2023-02-18T06:33:40;101323.66;;;12.28;76.43
4981;BME280;2507;50.392;7.482;2023-02-18T06:36:08;101317.97;;;12.34;76.21
4981;BME280;2507;50.392;7.482;2023-02-18T06:38:36;101314.63;;;12.32;76.43
4981;BME280;2507;50.392;7.482;2023-02-18T06:41:02;101314.41;;;12.36;76.00
4981;BME280;2507;50.392;7.482;2023-02-18T06:43:28;101315.91;;;12.40;75.61
4981;BME280;2507;50.392;7.482;2023-02-18T06:45:54;101325.34;;;12.42;75.18
4981;BME280;2507;50.392;7.482;2023-02-18T06:48:19;101312.41;;;12.39;75.23
4981;BME280;2507;50.392;7.482;2023-02-18T06:50:44;101311.56;;;12.39;74.85
4981;BME280;2507;50.392;7.482;2023-02-18T06:53:11;101309.88;;;12.38;74.58
4981;BME280;2507;50.392;7.482;2023-02-18T06:55:36;101313.69;;;12.46;73.97
4981;BME280;2507;50.392;7.482;2023-02-18T06:58:02;101310.03;;;12.61;72.74
4981;BME280;2507;50.392;7.482;2023-02-18T07:00:28;101301.16;;;12.62;72.36
4981;BME280;2507;50.392;7.482;2023-02-18T07:02:53;101299.16;;;12.78;71.73
4981;BME280;2507;50.392;7.482;2023-02-18T07:05:18;101302.25;;;12.85;71.12
4981;BME280;2507;50.392;7.482;2023-02-18T07:07:44;101300.53;;;12.84;69.90
4981;BME280;2507;50.392;7.482;2023-02-18T07:10:10;101293.38;;;12.98;68.53
4981;BME280;2507;50.392;7.482;2023-02-18T07:12:35;101305.28;;;13.16;66.86
4981;BME280;2507;50.392;7.482;2023-02-18T07:15:00;101301.94;;;13.14;67.41
4981;BME280;2507;50.392;7.482;2023-02-18T07:17:26;101308.06;;;13.02;68.74
4981;BME280;2507;50.392;7.482;2023-02-18T07:19:51;101315.53;;;13.08;69.48
4981;BME280;2507;50.392;7.482;2023-02-18T07:22:17;101318.78;;;13.24;68.58
4981;BME280;2507;50.392;7.482;2023-02-18T07:24:42;101324.06;;;13.24;68.92
4981;BME280;2507;50.392;7.482;2023-02-18T07:27:07;101318.88;;;13.36;68.75
4981;BME280;2507;50.392;7.482;2023-02-18T07:29:33;101320.03;;;13.31;69.11
4981;BME280;2507;50.392;7.482;2023-02-18T07:31:58;101314.66;;;13.20;69.75
4981;BME280;2507;50.392;7.482;2023-02-18T07:34:23;101298.22;;;13.29;69.17
4981;BME280;2507;50.392;7.482;2023-02-18T07:36:48;101301.69;;;13.30;68.44
4981;BME280;2507;50.392;7.482;2023-02-18T07:39:14;101292.38;;;13.37;67.47
4981;BME280;2507;50.392;7.482;2023-02-18T07:41:40;101292.47;;;13.48;66.41
4981;BME280;2507;50.392;7.482;2023-02-18T07:44:05;101284.88;;;13.56;65.91
4981;BME280;2507;50.392;7.482;2023-02-18T07:46:30;101290.53;;;13.63;65.47
4981;BME280;2507;50.392;7.482;2023-02-18T07:48:56;101301.31;;;13.60;66.05
4981;BME280;2507;50.392;7.482;2023-02-18T07:51:22;101305.34;;;13.40;67.44
4981;BME280;2507;50.392;7.482;2023-02-18T07:53:47;101313.25;;;13.40;67.62
4981;BME280;2507;50.392;7.482;2023-02-18T07:56:12;101317.66;;;13.52;67.31
4981;BME280;2507;50.392;7.482;2023-02-18T07:58:38;101316.31;;;13.47;67.32
4981;BME280;2507;50.392;7.482;2023-02-18T08:01:09;101319.16;;;13.44;67.58
4981;BME280;2507;50.392;7.482;2023-02-18T08:03:36;101319.75;;;13.60;66.93
4981;BME280;2507;50.392;7.482;2023-02-18T08:06:03;101321.41;;;13.73;65.85
4981;BME280;2507;50.392;7.482;2023-02-18T08:08:30;101332.44;;;13.91;65.36
4981;BME280;2507;50.392;7.482;2023-02-18T08:10:57;101336.19;;;13.99;65.13
4981;BME280;2507;50.392;7.482;2023-02-18T08:13:23;101347.47;;;14.01;64.58
4981;BME280;2507;50.392;7.482;2023-02-18T08:15:48;101343.88;;;14.02;64.11
4981;BME280;2507;50.392;7.482;2023-02-18T08:18:19;101345.38;;;14.17;63.98
4981;BME280;2507;50.392;7.482;2023-02-18T08:20:45;101335.53;;;14.32;63.23
4981;BME280;2507;50.392;7.482;2023-02-18T08:23:12;101335.31;;;14.22;63.45
4981;BME280;2507;50.392;7.482;2023-02-18T08:25:38;101341.41;;;14.36;63.14
4981;BME280;2507;50.392;7.482;2023-02-18T08:28:03;101337.84;;;14.24;63.91
4981;BME280;2507;50.392;7.482;2023-02-18T08:30:29;101338.56;;;14.26;63.42
4981;BME280;2507;50.392;7.482;2023-02-18T08:32:54;101341.75;;;14.31;62.88
4981;BME280;2507;50.392;7.482;2023-02-18T08:35:19;101327.75;;;14.42;62.55
4981;BME280;2507;50.392;7.482;2023-02-18T08:37:45;101337.19;;;14.33;62.28
4981;BME280;2507;50.392;7.482;2023-02-18T08:40:11;101345.88;;;14.22;62.29
4981;BME280;2507;50.392;7.482;2023-02-18T08:42:36;101345.00;;;14.34;62.15
4981;BME280;2507;50.392;7.482;2023-02-18T08:45:03;101352.59;;;14.39;60.91
4981;BME280;2507;50.392;7.482;2023-02-18T08:47:28;101346.00;;;14.45;60.38
4981;BME280;2507;50.392;7.482;2023-02-18T08:49:53;101337.44;;;14.30;60.61
4981;BME280;2507;50.392;7.482;2023-02-18T08:52:19;101333.81;;;14.07;60.47
4981;BME280;2507;50.392;7.482;2023-02-18T08:54:44;101347.34;;;14.03;60.44
4981;BME280;2507;50.392;7.482;2023-02-18T08:57:10;101345.03;;;13.98;60.71
4981;BME280;2507;50.392;7.482;2023-02-18T08:59:35;101346.25;;;13.82;60.72
4981;BME280;2507;50.392;7.482;2023-02-18T09:02:00;101359.25;;;14.08;60.17
4981;BME280;2507;50.392;7.482;2023-02-18T09:04:26;101354.38;;;14.15;59.58
4981;BME280;2507;50.392;7.482;2023-02-18T09:06:51;101356.75;;;14.30;59.22
4981;BME280;2507;50.392;7.482;2023-02-18T09:09:17;101364.25;;;14.24;59.34
4981;BME280;2507;50.392;7.482;2023-02-18T09:11:43;101367.06;;;14.10;59.83
4981;BME280;2507;50.392;7.482;2023-02-18T09:14:09;101369.16;;;14.17;59.71
4981;BME280;2507;50.392;7.482;2023-02-18T09:16:34;101373.63;;;14.04;59.11
4981;BME280;2507;50.392;7.482;2023-02-18T09:19:00;101380.25;;;13.86;59.77
4981;BME280;2507;50.392;7.482;2023-02-18T09:21:25;101385.25;;;14.02;59.87
4981;BME280;2507;50.392;7.482;2023-02-18T09:23:51;101374.81;;;14.00;59.97
4981;BME280;2507;50.392;7.482;2023-02-18T09:26:18;101395.72;;;14.03;59.34
4981;BME280;2507;50.392;7.482;2023-02-18T09:28:49;101396.47;;;13.93;57.64
4981;BME280;2507;50.392;7.482;2023-02-18T09:31:18;101404.59;;;13.90;57.85
4981;BME280;2507;50.392;7.482;2023-02-18T09:33:48;101403.47;;;13.81;57.05
4981;BME280;2507;50.392;7.482;2023-02-18T09:36:15;101396.09;;;13.74;56.95
4981;BME280;2507;50.392;7.482;2023-02-18T09:38:40;101396.31;;;13.83;56.93
4981;BME280;2507;50.392;7.482;2023-02-18T09:41:13;101391.16;;;13.69;56.98
4981;BME280;2507;50.392;7.482;2023-02-18T09:43:42;101397.81;;;13.62;57.31
4981;BME280;2507;50.392;7.482;2023-02-18T09:46:18;101397.03;;;13.73;57.23
4981;BME280;2507;50.392;7.482;2023-02-18T09:48:46;101397.69;;;13.76;57.51
4981;BME280;2507;50.392;7.482;2023-02-18T09:51:15;101392.47;;;13.87;57.25
4981;BME280;2507;50.392;7.482;2023-02-18T09:53:42;101391.19;;;13.93;57.33
4981;BME280;2507;50.392;7.482;2023-02-18T09:56:25;101381.44;;;14.06;57.08
4981;BME280;2507;50.392;7.482;2023-02-18T09:58:52;101376.44;;;14.14;57.09
4981;BME280;2507;50.392;7.482;2023-02-18T10:01:27;101384.88;;;14.19;57.10
4981;BME280;2507;50.392;7.482;2023-02-18T10:03:57;101370.19;;;14.15;57.09
4981;BME280;2507;50.392;7.482;2023-02-18T10:06:27;101377.75;;;14.08;57.58
4981;BME280;2507;50.392;7.482;2023-02-18T10:08:54;101367.69;;;14.13;57.32
4981;BME280;2507;50.392;7.482;2023-02-18T10:11:40;101364.88;;;14.04;57.23
4981;BME280;2507;50.392;7.482;2023-02-18T10:14:11;101372.03;;;14.02;57.83
4981;BME280;2507;50.392;7.482;2023-02-18T10:16:37;101349.75;;;13.82;58.29
4981;BME280;2507;50.392;7.482;2023-02-18T10:19:08;101356.78;;;13.94;57.53
4981;BME280;2507;50.392;7.482;2023-02-18T10:21:37;101350.22;;;14.00;57.72
4981;BME280;2507;50.392;7.482;2023-02-18T10:24:05;101348.25;;;13.91;57.95
4981;BME280;2507;50.392;7.482;2023-02-18T10:26:34;101351.59;;;13.93;57.41
4981;BME280;2507;50.392;7.482;2023-02-18T10:29:01;101348.28;;;14.02;57.30
4981;BME280;2507;50.392;7.482;2023-02-18T10:31:35;101336.69;;;14.04;56.98
4981;BME280;2507;50.392;7.482;2023-02-18T10:37:01;101336.00;;;14.13;57.06
4981;BME280;2507;50.392;7.482;2023-02-18T10:39:51;101335.09;;;14.02;57.39
4981;BME280;2507;50.392;7.482;2023-02-18T10:50:24;101334.47;;;14.22;57.87
4981;BME280;2507;50.392;7.482;2023-02-18T10:52:54;101329.19;;;14.22;58.09
4981;BME280;2507;50.392;7.482;2023-02-18T10:55:36;101315.69;;;14.26;58.24
4981;BME280;2507;50.392;7.482;2023-02-18T10:58:03;101334.16;;;14.03;58.98
4981;BME280;2507;50.392;7.482;2023-02-18T11:00:34;101323.84;;;14.00;59.18
4981;BME280;2507;50.392;7.482;2023-02-18T11:03:13;101303.84;;;14.08;59.38
4981;BME280;2507;50.392;7.482;2023-02-18T11:05:40;101306.53;;;13.96;59.54
4981;BME280;2507;50.392;7.482;2023-02-18T11:08:09;101297.22;;;14.03;59.74
4981;BME280;2507;50.392;7.482;2023-02-18T11:10:38;101298.81;;;13.93;59.96
4981;BME280;2507;50.392;7.482;2023-02-18T11:13:06;101299.41;;;13.85;59.85
4981;BME280;2507;50.392;7.482;2023-02-18T11:15:33;101314.50;;;13.83;60.25
4981;BME280;2507;50.392;7.482;2023-02-18T11:18:14;101287.72;;;13.77;60.82
4981;BME280;2507;50.392;7.482;2023-02-18T11:20:55;101285.44;;;13.96;60.37
4981;BME280;2507;50.392;7.482;2023-02-18T11:23:22;101287.31;;;14.17;59.90
4981;BME280;2507;50.392;7.482;2023-02-18T11:26:05;101279.00;;;14.11;60.11
4981;BME280;2507;50.392;7.482;2023-02-18T11:28:50;101267.72;;;14.32;59.54
4981;BME280;2507;50.392;7.482;2023-02-18T11:31:25;101258.38;;;14.40;58.97
4981;BME280;2507;50.392;7.482;2023-02-18T11:33:54;101260.66;;;14.44;59.13
4981;BME280;2507;50.392;7.482;2023-02-18T11:36:32;101258.13;;;14.43;59.44
4981;BME280;2507;50.392;7.482;2023-02-18T11:41:42;101244.84;;;14.77;58.60
4981;BME280;2507;50.392;7.482;2023-02-18T11:44:40;101259.38;;;14.61;58.60
4981;BME280;2507;50.392;7.482;2023-02-18T11:49:37;101300.03;;;14.58;59.02
4981;BME280;2507;50.392;7.482;2023-02-18T11:52:13;101257.44;;;14.52;59.02
4981;BME280;2507;50.392;7.482;2023-02-18T11:54:40;101250.84;;;14.57;59.55
4981;BME280;2507;50.392;7.482;2023-02-18T11:57:10;101258.63;;;14.59;59.15
4981;BME280;2507;50.392;7.482;2023-02-18T11:59:39;101278.91;;;14.47;59.44
4981;BME280;2507;50.392;7.482;2023-02-18T12:02:25;101258.03;;;14.66;59.25
4981;BME280;2507;50.392;7.482;2023-02-18T12:04:59;101278.00;;;14.70;59.18
4981;BME280;2507;50.392;7.482;2023-02-18T12:13:01;101267.88;;;14.53;61.82
4981;BME280;2507;50.392;7.482;2023-02-18T12:18:53;101280.34;;;14.51;63.37
4981;BME280;2507;50.392;7.482;2023-02-18T12:21:31;101282.97;;;14.29;64.69
4981;BME280;2507;50.392;7.482;2023-02-18T12:24:06;101278.38;;;14.07;66.03
4981;BME280;2507;50.392;7.482;2023-02-18T12:26:57;101273.69;;;14.00;66.63
4981;BME280;2507;50.392;7.482;2023-02-18T12:37:46;101279.81;;;13.77;66.75
4981;BME280;2507;50.392;7.482;2023-02-18T12:43:08;101284.97;;;13.78;68.03
4981;BME280;2507;50.392;7.482;2023-02-18T12:48:20;101289.78;;;13.61;67.84
4981;BME280;2507;50.392;7.482;2023-02-18T12:51:21;101282.44;;;13.77;67.61
4981;BME280;2507;50.392;7.482;2023-02-18T12:54:08;101282.25;;;13.80;67.75
4981;BME280;2507;50.392;7.482;2023-02-18T13:05:07;101281.41;;;14.14;66.68
4981;BME280;2507;50.392;7.482;2023-02-18T13:10:35;101271.69;;;14.38;65.37
4981;BME280;2507;50.392;7.482;2023-02-18T13:13:11;101275.66;;;14.20;66.10
4981;BME280;2507;50.392;7.482;2023-02-18T13:15:44;101275.41;;;14.12;66.69
4981;BME280;2507;50.392;7.482;2023-02-18T13:18:17;101278.75;;;13.79;67.79
4981;BME280;2507;50.392;7.482;2023-02-18T13:20:48;101281.94;;;13.72;68.61
4981;BME280;2507;50.392;7.482;2023-02-18T13:23:18;101284.50;;;13.61;68.96
4981;BME280;2507;50.392;7.482;2023-02-18T13:25:44;101282.22;;;13.56;68.96
4981;BME280;2507;50.392;7.482;2023-02-18T13:28:22;101285.59;;;13.46;69.35
4981;BME280;2507;50.392;7.482;2023-02-18T13:31:03;101275.59;;;13.51;69.46
4981;BME280;2507;50.392;7.482;2023-02-18T13:33:59;101276.22;;;13.54;69.36
4981;BME280;2507;50.392;7.482;2023-02-18T13:39:15;101273.97;;;13.61;69.53
4981;BME280;2507;50.392;7.482;2023-02-18T13:41:46;101276.66;;;13.48;70.50
4981;BME280;2507;50.392;7.482;2023-02-18T13:46:54;101278.47;;;13.35;71.46
4981;BME280;2507;50.392;7.482;2023-02-18T13:49:23;101283.28;;;13.54;70.65
4981;BME280;2507;50.392;7.482;2023-02-18T13:51:51;101289.59;;;13.51;70.32
4981;BME280;2507;50.392;7.482;2023-02-18T13:54:31;101288.97;;;13.48;71.40
4981;BME280;2507;50.392;7.482;2023-02-18T13:57:02;101294.25;;;13.48;71.44
4981;BME280;2507;50.392;7.482;2023-02-18T13:59:47;101274.88;;;13.49;71.49
4981;BME280;2507;50.392;7.482;2023-02-18T14:07:25;101277.66;;;13.58;70.22
4981;BME280;2507;50.392;7.482;2023-02-18T14:09:53;101281.03;;;13.60;69.87
4981;BME280;2507;50.392;7.482;2023-02-18T14:12:40;101266.59;;;13.53;70.74
4981;BME280;2507;50.392;7.482;2023-02-18T14:25:50;101266.34;;;13.69;69.73
4981;BME280;2507;50.392;7.482;2023-02-18T14:28:37;101265.00;;;13.63;70.34
4981;BME280;2507;50.392;7.482;2023-02-18T14:31:25;101265.94;;;13.62;70.39
4981;BME280;2507;50.392;7.482;2023-02-18T14:34:06;101265.06;;;13.51;69.83
4981;BME280;2507;50.392;7.482;2023-02-18T14:36:47;101259.97;;;13.48;69.93
4981;BME280;2507;50.392;7.482;2023-02-18T14:42:31;101292.34;;;13.50;70.42
4981;BME280;2507;50.392;7.482;2023-02-18T14:50:22;101250.41;;;13.70;69.40
4981;BME280;2507;50.392;7.482;2023-02-18T14:52:50;101253.41;;;13.77;69.66
4981;BME280;2507;50.392;7.482;2023-02-18T14:55:24;101270.03;;;13.90;68.89
4981;BME280;2507;50.392;7.482;2023-02-18T15:00:29;101257.22;;;13.96;68.74
4981;BME280;2507;50.392;7.482;2023-02-18T15:02:59;101252.34;;;14.03;68.04
4981;BME280;2507;50.392;7.482;2023-02-18T15:05:27;101247.50;;;13.97;68.63